Time;durP1;ratioP1;P1;durP2;ratioP2;P2;SDS_P1;SDS_P2;PMS_P1;PMS_P2;Temp;Humidity;BMP_temperature;BMP_pressure;BME280_temperature;BME280_humidity;BME280_pressure;Samples;Min_cycle;Max_cycle;Signal;HPM_P1;HPM_P2
2022/12/18 00:02:01;;;;;;;4.18;3.08;;;;;;;28.96;50.59;100858.53;5047951;28;66619;-41
2022/12/18 00:04:52;;;;;;;4.75;2.78;;;;;;;28.87;50.84;100870.59;5054928;28;71312;-40
2022/12/18 00:07:42;;;;;;;3.15;2.83;;;;;;;28.96;50.56;100874.75;5064959;28;67338;-40
2022/12/18 00:10:32;;;;;;;3.60;2.45;;;;;;;29.01;50.75;100878.69;5050725;28;71158;-42
2022/12/18 00:13:23;;;;;;;11.07;2.65;;;;;;;29.02;51.26;100878.47;5049860;28;67343;-43
2022/12/18 00:16:21;;;;;;;3.67;3.00;;;;;;;29.03;51.12;100887.41;5058502;28;71156;-41
2022/12/18 00:19:11;;;;;;;8.55;2.92;;;;;;;29.09;51.32;100892.84;5052010;28;66612;-42
2022/12/18 00:22:02;;;;;;;4.07;2.75;;;;;;;29.11;51.33;100903.44;5055918;28;70539;-41
2022/12/18 00:24:52;;;;;;;12.18;2.92;;;;;;;29.07;51.25;100888.69;5048978;28;67290;-42
2022/12/18 00:27:42;;;;;;;3.05;2.42;;;;;;;29.13;51.86;100895.97;5051305;28;71080;-41
2022/12/18 00:30:33;;;;;;;3.78;2.50;;;;;;;29.18;51.44;100920.50;5046899;28;67259;-41
2022/12/18 00:33:23;;;;;;;8.07;2.97;;;;;;;29.15;52.19;100904.69;5052452;28;71150;-41
2022/12/18 00:36:17;;;;;;;5.70;2.80;;;;;;;28.86;52.36;100863.53;5055226;28;67244;-42
2022/12/18 00:39:08;;;;;;;7.43;2.67;;;;;;;29.21;51.93;100914.66;5051604;28;71117;-42
2022/12/18 00:45:06;;;;;;;12.43;2.78;;;;;;;29.29;53.46;100927.97;5049463;28;70348;-39
2022/12/18 00:48:00;;;;;;;13.57;3.20;;;;;;;29.35;54.61;100937.94;5059823;28;67265;-43
2022/12/18 00:50:52;;;;;;;13.85;3.75;;;;;;;29.35;54.64;100943.34;5049938;28;70394;-42
2022/12/18 00:53:42;;;;;;;4.22;3.53;;;;;;;29.37;55.20;100946.66;5048954;28;66202;-42
2022/12/18 00:56:32;;;;;;;6.30;3.95;;;;;;;29.36;55.63;100945.03;5045822;28;71615;-44
2022/12/18 00:59:22;;;;;;;5.45;3.38;;;;;;;29.35;55.81;100932.53;5056309;28;66689;-41
2022/12/18 01:02:12;;;;;;;4.63;4.00;;;;;;;29.39;56.42;100943.75;5055697;28;71292;-42
2022/12/18 01:05:05;;;;;;;5.57;3.58;;;;;;;29.37;56.17;100946.66;5051682;28;67211;-41
2022/12/18 01:07:56;;;;;;;4.28;3.88;;;;;;;29.41;56.54;100952.47;5051455;28;70559;-43
2022/12/18 01:10:47;;;;;;;5.15;3.58;;;;;;;29.40;57.27;100951.66;5037122;28;67365;-41
2022/12/18 01:13:37;;;;;;;6.85;4.35;;;;;;;29.44;56.83;100952.06;5051746;28;71100;-40
2022/12/18 01:16:27;;;;;;;6.20;3.25;;;;;;;29.46;57.08;100950.00;5052534;28;66402;-43
2022/12/18 01:19:18;;;;;;;3.40;3.10;;;;;;;29.45;56.82;100937.53;5053824;28;70302;-41
2022/12/18 01:22:08;;;;;;;6.32;3.50;;;;;;;29.48;56.60;100941.69;5053835;28;66547;-40
2022/12/18 01:24:58;;;;;;;3.53;3.22;;;;;;;29.50;55.75;100940.41;5052888;28;70109;-41
2022/12/18 01:27:48;;;;;;;8.95;3.25;;;;;;;29.50;56.86;100928.78;5052706;28;66841;-40
2022/12/18 01:30:38;;;;;;;8.15;2.90;;;;;;;29.46;57.30;100930.25;5046603;28;71071;-42
2022/12/18 01:33:28;;;;;;;8.98;3.30;;;;;;;29.54;57.46;100947.06;5052877;28;67055;-42
2022/12/18 01:36:24;;;;;;;7.03;3.53;;;;;;;29.44;57.51;100919.63;5047894;28;70321;-42
2022/12/18 01:39:15;;;;;;;6.95;3.42;;;;;;;29.43;57.15;100917.16;5034233;28;67213;-42
2022/12/18 01:42:15;;;;;;;7.07;3.42;;;;;;;29.14;57.04;100870.59;5052457;28;70438;-42
2022/12/18 01:45:14;;;;;;;17.33;3.75;;;;;;;29.64;53.53;100946.66;5051544;28;67133;-43
2022/12/18 01:48:08;;;;;;;18.80;3.95;;;;;;;29.16;51.36;100873.94;5058099;28;70430;-46
2022/12/18 01:50:58;;;;;;;28.08;5.45;;;;;;;29.56;51.68;100938.72;5052457;28;66428;-42
2022/12/18 01:53:50;;;;;;;25.67;5.03;;;;;;;29.55;51.30;100954.13;5057522;28;70339;-44
2022/12/18 01:56:40;;;;;;;30.50;4.38;;;;;;;29.63;52.00;100966.63;5051402;28;67324;-43
2022/12/18 01:59:33;;;;;;;7.22;2.85;;;;;;;29.37;52.53;100908.00;5045508;28;71234;-43
2022/12/18 02:02:23;;;;;;;13.13;2.67;;;;;;;29.72;51.96;100949.13;5048868;28;67180;-43
2022/12/18 02:05:52;;;;;;;11.13;2.83;;;;;;;29.68;52.39;100945.22;5046358;28;70311;-41
2022/12/18 02:09:07;;;;;;;7.95;3.33;;;;;;;29.77;52.19;100930.41;5037038;28;67036;-43
2022/12/18 02:12:24;;;;;;;3.92;3.05;;;;;;;29.82;52.26;100946.84;5058656;28;70382;-43
2022/12/18 02:15:25;;;;;;;8.05;2.33;;;;;;;29.74;52.29;100920.03;5056139;28;67361;-42
2022/12/18 02:18:33;;;;;;;6.32;2.42;;;;;;;29.92;51.66;100953.69;5067470;27;70539;-43
2022/12/18 02:21:44;;;;;;;7.13;2.40;;;;;;;29.90;51.82;100972.00;5055789;28;67467;-42
2022/12/18 02:25:00;;;;;;;4.22;2.70;;;;;;;29.89;52.22;100954.94;5060283;28;71076;-43
2022/12/18 02:27:53;;;;;;;7.72;2.92;;;;;;;30.01;51.63;100952.41;5055191;28;66666;-42
2022/12/18 02:30:47;;;;;;;2.75;2.08;;;;;;;29.91;51.66;100935.78;5057594;28;70902;-41
2022/12/18 02:33:39;;;;;;;5.47;2.42;;;;;;;29.70;51.90;100890.91;5040876;28;67222;-43
2022/12/18 02:36:32;;;;;;;5.70;2.33;;;;;;;30.03;51.69;100947.59;5057248;28;70543;-41
2022/12/18 02:39:26;;;;;;;3.03;2.17;;;;;;;30.13;52.03;100955.28;5054898;28;67333;-42
2022/12/18 02:42:24;;;;;;;3.20;2.35;;;;;;;30.13;52.13;100944.47;5058440;28;70215;-41
2022/12/18 02:45:15;;;;;;;9.60;2.53;;;;;;;30.15;51.94;100945.91;5043486;28;66586;-41
2022/12/18 02:48:08;;;;;;;5.90;2.35;;;;;;;30.14;51.77;100941.53;5051455;28;70332;-42
2022/12/18 02:51:08;;;;;;;4.40;1.88;;;;;;;30.18;51.39;100948.19;5060364;28;66975;-42
2022/12/18 02:54:21;;;;;;;9.57;2.30;;;;;;;29.69;51.85;100876.56;5056574;28;71051;-42
2022/12/18 02:57:36;;;;;;;3.67;2.33;;;;;;;29.40;51.23;100808.44;5034821;28;67330;-42
2022/12/18 03:00:52;;;;;;;2.50;2.15;;;;;;;29.71;51.23;100860.97;5053391;28;71342;-42
2022/12/18 03:03:52;;;;;;;2.08;1.88;;;;;;;30.25;51.50;100940.88;5055544;28;67353;-43
2022/12/18 03:06:54;;;;;;;3.40;2.03;;;;;;;29.85;51.45;100840.13;5054240;28;70371;-42
2022/12/18 03:09:49;;;;;;;;;;;;;;;29.96;51.99;100917.88;5051988;28;66562;-43
2022/12/18 03:12:45;;;;;;;2.30;1.83;;;;;;;30.20;51.76;100889.28;5053382;28;70536;-42
2022/12/18 03:15:53;;;;;;;2.70;1.70;;;;;;;29.86;51.75;100835.53;5042821;28;66715;-42
2022/12/18 03:19:07;;;;;;;6.60;2.10;;;;;;;29.84;51.26;100828.50;5048934;28;71693;-42
2022/12/18 03:22:00;;;;;;;2.17;1.27;;;;;;;30.25;51.44;100867.00;5054287;28;66595;-43
2022/12/18 03:25:04;;;;;;;3.15;1.80;;;;;;;30.42;51.57;100891.69;5055461;28;70465;-42
2022/12/18 03:27:59;;;;;;;5.25;1.75;;;;;;;29.91;51.42;100792.47;5068954;27;66594;-42
2022/12/18 03:30:57;;;;;;;3.20;1.50;;;;;;;30.48;51.07;100866.47;5035983;28;70505;-43
2022/12/18 03:34:00;;;;;;;3.63;1.77;;;;;;;30.52;51.48;100881.22;5052723;28;67162;-42
2022/12/18 03:36:59;;;;;;;3.67;1.60;;;;;;;30.51;51.00;100874.16;5055780;28;70803;-42
2022/12/18 03:39:51;;;;;;;4.45;1.70;;;;;;;30.47;51.01;100853.97;5049903;28;66675;-41
2022/12/18 03:42:57;;;;;;;2.05;1.58;;;;;;;30.50;50.99;100876.00;5051162;28;70806;-42
2022/12/18 03:45:56;;;;;;;12.15;2.13;;;;;;;30.50;51.16;100864.38;5064351;27;67269;-44
2022/12/18 03:48:52;;;;;;;7.85;1.98;;;;;;;30.43;51.84;100863.59;5064278;27;70829;-43
2022/12/18 03:51:48;;;;;;;2.65;1.38;;;;;;;30.40;52.26;100862.16;5051145;28;67392;-45
2022/12/18 03:54:41;;;;;;;5.47;2.03;;;;;;;29.98;52.59;100793.28;5048588;28;70326;-43
2022/12/18 03:57:36;;;;;;;3.92;1.50;;;;;;;30.25;53.03;100840.78;5052913;28;66601;-44
2022/12/18 04:00:26;;;;;;;2.47;1.25;;;;;;;30.34;52.90;100854.06;5048759;28;70738;-43
2022/12/18 04:03:27;;;;;;;5.43;1.15;;;;;;;29.87;54.06;100772.31;5058821;28;66417;-44
2022/12/18 04:06:18;;;;;;;6.28;1.33;;;;;;;30.31;53.86;100838.25;5056820;28;70137;-42
2022/12/18 04:09:09;;;;;;;8.32;1.40;;;;;;;30.33;54.34;100830.75;5048222;28;67329;-43
2022/12/18 04:12:04;;;;;;;4.43;1.30;;;;;;;30.33;54.26;100822.63;5049646;28;71020;-44
2022/12/18 04:14:55;;;;;;;8.80;1.10;;;;;;;30.39;50.69;100819.06;5048725;28;67326;-45
2022/12/18 04:17:50;;;;;;;6.72;1.50;;;;;;;30.46;50.96;100825.25;5033379;28;70410;-44
2022/12/18 04:20:44;;;;;;;6.47;1.80;;;;;;;30.40;49.93;100799.91;5037789;28;67312;-43
2022/12/18 04:23:35;;;;;;;8.77;2.10;;;;;;;30.54;49.67;100803.34;5057846;28;70467;-49
2022/12/18 04:26:26;;;;;;;8.25;1.75;;;;;;;30.59;48.72;100802.66;5052631;28;67290;-42
2022/12/18 04:29:33;;;;;;;8.75;1.38;;;;;;;30.66;48.56;100806.97;5064582;27;71691;-31
2022/12/18 04:32:23;;;;;;;31.33;2.17;;;;;;;30.69;49.67;100798.41;5051224;28;67429;-34
2022/12/18 04:35:13;;;;;;;4.20;1.05;;;;;;;30.68;48.57;100807.59;5057617;28;71047;-31
2022/12/18 04:38:08;;;;;;;7.80;0.93;;;;;;;30.66;49.18;100796.16;5050317;28;66899;-35
2022/12/18 04:40:58;;;;;;;183.75;6.53;;;;;;;30.88;49.11;100795.78;5054270;28;70349;-41
2022/12/18 04:43:50;;;;;;;12.80;1.80;;;;;;;30.88;49.44;100784.97;5053828;28;66616;-38
2022/12/18 04:46:40;;;;;;;5.53;1.70;;;;;;;30.94;49.62;100767.81;5052054;28;70069;-41
2022/12/18 04:49:31;;;;;;;13.63;1.63;;;;;;;30.97;50.02;100761.94;5052733;28;67280;-37
2022/12/18 04:52:21;;;;;;;8.77;1.55;;;;;;;31.00;50.50;100764.22;5052095;28;71133;-37
2022/12/18 04:55:13;;;;;;;7.53;1.50;;;;;;;31.04;50.54;100760.00;5056675;28;66474;-36
2022/12/18 04:58:03;;;;;;;4.00;2.00;;;;;;;31.02;50.76;100732.31;5049724;28;72275;-38
2022/12/18 05:01:00;;;;;;;3.35;1.70;;;;;;;31.09;50.79;100743.91;5051615;28;67242;-37
2022/12/18 05:03:52;;;;;;;4.05;1.50;;;;;;;31.12;50.74;100753.44;5050620;28;70624;-36
2022/12/18 05:06:49;;;;;;;7.53;1.40;;;;;;;31.13;50.60;100738.88;5052714;28;65870;-37
2022/12/18 05:09:46;;;;;;;2.38;1.52;;;;;;;31.15;50.45;100720.50;5053432;28;69312;-38
2022/12/18 05:12:57;;;;;;;3.67;1.40;;;;;;;31.14;50.75;100711.53;5051472;28;66399;-37
2022/12/18 05:15:52;;;;;;;6.35;1.48;;;;;;;31.14;50.63;100713.41;5050852;28;70908;-40
2022/12/18 05:18:43;;;;;;;2.92;1.05;;;;;;;31.22;50.75;100715.00;5050751;28;66559;-37
2022/12/18 05:21:33;;;;;;;3.35;1.35;;;;;;;31.16;50.57;100709.44;5045651;28;70337;-38
2022/12/18 05:24:22;;;;;;;1.88;1.17;;;;;;;31.14;51.33;100697.97;5047349;28;66915;-38
2022/12/18 05:27:12;;;;;;;2.22;1.33;;;;;;;31.08;51.28;100698.88;5047674;28;70755;-39
2022/12/18 05:30:03;;;;;;;5.53;1.10;;;;;;;30.99;51.86;100688.59;5046810;28;65901;-38
2022/12/18 05:32:54;;;;;;;2.50;0.95;;;;;;;31.01;51.84;100676.50;5048787;28;71205;-38
2022/12/18 05:35:43;;;;;;;5.88;0.90;;;;;;;31.00;51.90;100672.09;5050051;28;67643;-40
2022/12/18 05:38:36;;;;;;;2.17;0.80;;;;;;;30.71;52.27;100627.63;5051537;28;70981;-38
2022/12/18 05:41:26;;;;;;;3.15;1.02;;;;;;;30.99;52.76;100667.75;5049908;28;67092;-41
2022/12/18 05:44:16;;;;;;;10.52;1.30;;;;;;;31.02;52.57;100666.47;5046923;28;70152;-39
2022/12/18 05:47:06;;;;;;;9.85;0.82;;;;;;;30.98;52.83;100662.53;5049943;28;65686;-37
2022/12/18 05:49:57;;;;;;;20.77;1.90;;;;;;;31.03;52.77;100644.56;5045136;28;70968;-37
2022/12/18 05:52:47;;;;;;;18.80;1.58;;;;;;;31.01;53.51;100627.72;5052416;28;67281;-38
2022/12/18 05:55:39;;;;;;;30.00;1.77;;;;;;;30.66;52.23;100565.19;5066926;27;70676;-36
2022/12/18 05:58:30;;;;;;;4.03;1.08;;;;;;;30.92;51.72;100604.69;5051065;28;66921;-36
2022/12/18 06:01:26;;;;;;;6.93;1.42;;;;;;;30.88;51.74;100611.63;5047479;28;70481;-35
2022/12/18 06:04:18;;;;;;;7.68;1.00;;;;;;;30.81;50.73;100605.44;5048607;28;66574;-38
2022/12/18 06:07:08;;;;;;;6.78;1.60;;;;;;;30.77;50.51;100605.06;5050429;28;71102;-37
2022/12/18 06:09:59;;;;;;;9.63;1.00;;;;;;;30.73;49.57;100601.97;5050422;28;67361;-40
2022/12/18 06:12:49;;;;;;;15.40;1.50;;;;;;;30.67;49.72;100594.78;5052054;28;70790;-40
2022/12/18 06:15:39;;;;;;;7.88;0.90;;;;;;;30.64;49.10;100600.59;5050621;28;67119;-41
2022/12/18 06:18:29;;;;;;;7.38;1.02;;;;;;;30.58;48.39;100609.63;5050233;28;70273;-41
2022/12/18 06:21:19;;;;;;;9.57;0.93;;;;;;;30.54;48.46;100600.31;5047463;28;66638;-37
2022/12/18 06:24:09;;;;;;;3.55;1.05;;;;;;;30.50;47.23;100593.69;5046616;28;71011;-40
2022/12/18 06:26:59;;;;;;;3.45;1.17;;;;;;;30.44;46.76;100594.59;5046642;28;66599;-40
2022/12/18 06:29:49;;;;;;;2.28;1.02;;;;;;;30.36;46.76;100587.59;5045947;28;71085;-38
2022/12/18 06:32:40;;;;;;;2.42;0.88;;;;;;;30.38;46.34;100579.25;5034683;28;66906;-39
2022/12/18 06:35:30;;;;;;;2.08;0.70;;;;;;;30.25;45.84;100581.03;5055211;28;71266;-36
2022/12/18 06:38:20;;;;;;;5.50;0.68;;;;;;;30.37;45.55;100583.00;5052070;28;67266;-37
2022/12/18 06:41:16;;;;;;;3.60;1.00;;;;;;;30.32;44.54;100588.28;5052801;28;70509;-36
2022/12/18 06:44:06;;;;;;;1.98;0.80;;;;;;;30.28;44.83;100569.78;5055364;28;66714;-37
2022/12/18 06:46:58;;;;;;;17.42;1.13;;;;;;;30.33;44.54;100576.38;5057967;28;71326;-40
2022/12/18 06:49:48;;;;;;;2.65;0.65;;;;;;;30.32;44.13;100585.56;5048906;28;66882;-38
2022/12/18 06:52:39;;;;;;;2.25;0.80;;;;;;;30.28;43.79;100572.50;5050873;28;71226;-37
2022/12/18 06:55:29;;;;;;;4.97;1.35;;;;;;;30.27;43.20;100568.13;5059379;28;66493;-36
2022/12/18 06:58:20;;;;;;;0.85;0.60;;;;;;;30.26;42.94;100571.88;5043360;28;71192;-39
2022/12/18 07:01:11;;;;;;;1.88;0.80;;;;;;;30.31;42.84;100565.78;5055840;28;67558;-36
2022/12/18 07:04:02;;;;;;;5.00;0.95;;;;;;;30.27;42.61;100556.47;5056281;28;69883;-36
2022/12/18 07:06:52;;;;;;;1.50;0.68;;;;;;;30.28;42.18;100552.69;5050878;28;67709;-36
2022/12/18 07:09:43;;;;;;;4.60;0.93;;;;;;;30.30;42.17;100544.38;5049647;28;71558;-36
2022/12/18 07:12:33;;;;;;;1.70;0.70;;;;;;;30.30;42.36;100547.06;5057732;28;66446;-36
2022/12/18 07:15:23;;;;;;;1.67;0.85;;;;;;;30.26;42.08;100536.72;5052086;28;70540;-35
2022/12/18 07:18:13;;;;;;;2.72;0.82;;;;;;;30.26;41.60;100523.19;5052802;28;67357;-37
2022/12/18 07:21:12;;;;;;;2.40;0.65;;;;;;;30.35;41.21;100525.59;5054872;28;70384;-36
2022/12/18 07:24:02;;;;;;;1.90;1.20;;;;;;;30.34;42.03;100511.25;5059089;28;67476;-34
2022/12/18 07:26:52;;;;;;;2.85;0.95;;;;;;;30.36;42.19;100500.16;5054023;28;70450;-39
2022/12/18 07:29:43;;;;;;;1.15;0.60;;;;;;;30.35;41.45;100487.69;5054657;28;66655;-36
2022/12/18 07:32:34;;;;;;;2.45;0.57;;;;;;;30.34;41.51;100491.44;5048363;28;70360;-35
2022/12/18 07:35:24;;;;;;;7.35;0.80;;;;;;;30.31;41.10;100492.72;5040870;28;66588;-42
2022/12/18 07:38:14;;;;;;;5.20;0.95;;;;;;;30.35;41.24;100503.94;5055710;28;70595;-38
2022/12/18 07:41:10;;;;;;;4.50;0.85;;;;;;;30.34;40.95;100483.31;5055141;28;67308;-37
2022/12/18 07:44:00;;;;;;;2.17;1.00;;;;;;;30.35;41.19;100485.00;5058571;28;71290;-38
2022/12/18 07:46:50;;;;;;;5.47;1.10;;;;;;;30.45;41.74;100482.56;5055809;28;66492;-40
2022/12/18 07:49:40;;;;;;;5.75;0.80;;;;;;;30.51;42.39;100487.09;5056211;28;70567;-38
2022/12/18 07:52:30;;;;;;;1.55;0.63;;;;;;;30.65;42.94;100487.75;5056201;28;66880;-37
2022/12/18 07:55:21;;;;;;;5.10;0.90;;;;;;;30.63;43.20;100469.00;5059546;28;71075;-36
2022/12/18 07:58:11;;;;;;;1.92;1.33;;;;;;;30.82;43.65;100482.56;5055611;28;67754;-39
2022/12/18 08:01:07;;;;;;;5.75;0.70;;;;;;;30.79;43.50;100477.56;5045740;28;71266;-36
2022/12/18 08:03:59;;;;;;;4.70;0.90;;;;;;;30.96;44.09;100494.03;5053215;28;66673;-39
2022/12/18 08:06:48;;;;;;;4.78;1.13;;;;;;;31.01;44.14;100503.13;5068054;27;71036;-38
2022/12/18 08:09:38;;;;;;;3.28;1.13;;;;;;;31.08;44.52;100511.97;5053962;28;66517;-39
2022/12/18 08:12:28;;;;;;;8.43;0.88;;;;;;;31.05;44.71;100489.94;5056939;28;71680;-39
2022/12/18 08:15:18;;;;;;;2.00;0.88;;;;;;;31.15;45.51;100504.56;5046767;28;67208;-36
2022/12/18 08:18:08;;;;;;;3.85;1.00;;;;;;;31.25;45.39;100508.59;5056643;28;69911;-35
2022/12/18 08:21:13;;;;;;;1.73;1.13;;;;;;;31.28;46.26;100518.97;5048579;28;67248;-40
2022/12/18 08:24:03;;;;;;;4.63;1.50;;;;;;;31.35;47.35;100528.66;5054959;28;70504;-42
2022/12/18 08:26:53;;;;;;;11.38;1.85;;;;;;;31.37;47.98;100528.44;5048512;28;66563;-39
2022/12/18 08:30:05;;;;;;;23.45;4.22;;;;;;;31.43;45.18;100541.09;5048752;28;70867;-35
2022/12/18 08:32:55;;;;;;;15.10;3.80;;;;;;;31.42;45.25;100534.00;5048103;28;66804;-38
2022/12/18 08:35:45;;;;;;;25.15;4.18;;;;;;;31.46;44.46;100540.63;5049344;28;71129;-37
2022/12/18 08:38:35;;;;;;;18.23;4.20;;;;;;;31.48;44.55;100534.94;5047955;28;67340;-37
2022/12/18 08:41:25;;;;;;;9.60;3.08;;;;;;;31.40;44.67;100528.00;5049459;28;69901;-39
2022/12/18 08:47:24;;;;;;;24.00;3.22;;;;;;;31.50;43.83;100544.50;5051674;28;70820;-39
2022/12/18 08:50:14;;;;;;;12.07;3.80;;;;;;;31.42;44.31;100517.72;5051975;28;66656;-37
2022/12/18 08:53:05;;;;;;;22.30;3.17;;;;;;;31.40;44.69;100517.16;5056425;28;71276;-37
2022/12/18 08:55:57;;;;;;;15.18;3.75;;;;;;;31.47;45.64;100542.25;5051575;28;66515;-37
2022/12/18 08:58:47;;;;;;;12.07;2.95;;;;;;;31.28;46.23;100518.97;5053357;28;70123;-37
2022/12/18 09:01:38;;;;;;;15.57;3.08;;;;;;;31.50;46.68;100544.50;5051800;28;67819;-39
2022/12/18 09:04:28;;;;;;;18.65;2.95;;;;;;;31.52;47.22;100547.81;5050532;28;71145;-36
2022/12/18 09:07:18;;;;;;;18.17;3.25;;;;;;;31.55;47.86;100551.94;5047570;28;67347;-38
2022/12/18 09:10:08;;;;;;;10.85;3.10;;;;;;;31.51;48.01;100543.47;5058991;28;70967;-36
2022/12/18 09:12:59;;;;;;;9.57;2.85;;;;;;;31.56;48.59;100554.41;5057609;28;67245;-37
2022/12/18 09:15:51;;;;;;;11.10;3.05;;;;;;;31.60;48.98;100550.19;5054026;28;71116;-38
2022/12/18 09:18:41;;;;;;;38.40;3.63;;;;;;;31.58;49.64;100552.31;5067230;27;67208;-35
2022/12/18 09:21:33;;;;;;;31.88;3.92;;;;;;;31.35;50.17;100504.28;5056565;28;71184;-38
2022/12/18 09:24:24;;;;;;;35.58;3.70;;;;;;;31.64;50.29;100549.72;5051985;28;66591;-37
2022/12/18 09:27:14;;;;;;;17.17;2.83;;;;;;;31.66;50.35;100558.47;5057268;28;70365;-39
2022/12/18 09:30:05;;;;;;;26.58;3.42;;;;;;;31.68;50.40;100556.31;5054178;28;66476;-39
2022/12/18 09:32:55;;;;;;;20.88;2.95;;;;;;;31.66;50.39;100550.31;5045210;28;71181;-36
2022/12/18 09:35:46;;;;;;;94.53;6.63;;;;;;;31.71;49.33;100550.44;5049902;28;67959;-37
2022/12/18 09:38:36;;;;;;;51.22;6.07;;;;;;;31.73;47.59;100556.44;5058303;28;72445;-37
2022/12/18 09:41:55;;;;;;;66.45;6.32;;;;;;;31.65;47.91;100554.06;5045576;28;67227;-36
2022/12/18 09:44:51;;;;;;;38.95;4.13;;;;;;;31.31;48.47;100502.25;5041281;28;71088;-37
2022/12/18 09:47:43;;;;;;;42.90;4.90;;;;;;;31.29;48.78;100516.03;5048390;28;67285;-37
2022/12/18 09:50:39;;;;;;;11.23;3.30;;;;;;;31.54;48.96;100572.81;5057581;28;71062;-37
2022/12/18 09:53:35;;;;;;;14.18;4.57;;;;;;;31.53;49.02;100590.13;5055099;28;67097;-38
2022/12/18 09:56:29;;;;;;;17.98;4.10;;;;;;;31.25;49.30;100551.94;5052562;28;70524;-39
2022/12/18 09:59:32;;;;;;;15.55;4.20;;;;;;;31.43;49.36;100603.44;5052126;28;67230;-39
2022/12/18 10:02:30;;;;;;;13.73;3.50;;;;;;;31.12;49.56;100556.53;5052945;28;71203;-42
2022/12/18 10:05:30;;;;;;;15.52;3.42;;;;;;;31.46;49.98;100624.66;5055926;28;67250;-38
2022/12/18 10:08:53;;;;;;;15.60;3.95;;;;;;;31.24;50.31;100608.03;5055156;28;71135;-38
2022/12/18 10:12:13;;;;;;;15.18;3.97;;;;;;;31.39;50.07;100646.41;5056908;28;66105;-37
2022/12/18 10:15:17;;;;;;;12.27;3.95;;;;;;;31.41;50.83;100654.34;5052118;28;71174;-41
2022/12/18 10:18:28;;;;;;;11.55;3.95;;;;;;;31.36;50.78;100656.91;5050786;28;67180;-39
2022/12/18 10:21:27;;;;;;;16.05;4.45;;;;;;;31.31;49.80;100643.16;5052471;28;71066;-40
2022/12/18 10:24:58;;;;;;;11.05;4.15;;;;;;;31.13;49.89;100642.16;5055126;28;67032;-39
2022/12/18 10:27:55;;;;;;;8.02;4.53;;;;;;;31.50;49.53;100677.34;5050097;28;70735;-39
2022/12/18 10:30:45;;;;;;;12.82;3.85;;;;;;;31.57;49.05;100690.81;5050197;28;65689;-37
2022/12/18 10:33:36;;;;;;;11.82;4.20;;;;;;;31.58;48.91;100696.00;5049434;28;70789;-39
2022/12/18 10:36:26;;;;;;;10.45;4.25;;;;;;;31.59;48.44;100700.38;5045444;28;66894;-37
2022/12/18 10:39:18;;;;;;;10.98;4.47;;;;;;;31.59;48.36;100700.38;5049898;28;71114;-39
2022/12/18 10:42:18;;;;;;;8.77;4.28;;;;;;;31.28;48.16;100668.84;5053858;28;66707;-40
2022/12/18 10:45:19;;;;;;;16.40;4.38;;;;;;;31.58;48.39;100714.97;5054007;28;70008;-41
2022/12/18 10:48:31;;;;;;;10.90;4.30;;;;;;;31.48;48.28;100708.44;5065937;27;67209;-37
2022/12/18 10:51:33;;;;;;;10.70;4.07;;;;;;;31.49;47.70;100705.53;5052864;28;70005;-40
2022/12/18 10:54:25;;;;;;;12.75;4.15;;;;;;;31.53;48.21;100706.69;5052622;28;66299;-38
2022/12/18 10:57:28;;;;;;;10.23;4.03;;;;;;;31.51;48.46;100708.84;5054226;28;70638;-42
2022/12/18 11:00:29;;;;;;;6.40;3.80;;;;;;;31.47;48.99;100718.47;5044032;28;67320;-40
2022/12/18 11:03:37;;;;;;;18.05;4.05;;;;;;;31.36;49.91;100728.19;5058432;28;69874;-40
2022/12/18 11:06:27;;;;;;;12.93;4.40;;;;;;;31.32;50.25;100739.69;5049525;28;67067;-37
2022/12/18 11:09:23;;;;;;;8.55;4.40;;;;;;;31.30;50.84;100736.38;5051977;28;71346;-37
2022/12/18 11:12:22;;;;;;;13.30;4.25;;;;;;;31.26;51.79;100748.72;5055313;28;66627;-40
2022/12/18 11:15:23;;;;;;;12.05;4.07;;;;;;;30.90;52.33;100701.63;5053165;28;69903;-41
2022/12/18 11:18:36;;;;;;;12.82;4.38;;;;;;;31.14;52.68;100757.59;5055280;28;67306;-39
2022/12/18 11:21:27;;;;;;;10.48;4.65;;;;;;;31.12;52.53;100754.31;5055360;28;70735;-40
2022/12/18 11:24:26;;;;;;;10.77;5.45;;;;;;;31.15;52.88;100753.84;5053671;28;65949;-37
2022/12/18 11:27:18;;;;;;;11.90;6.72;;;;;;;31.19;53.09;100772.38;5051842;28;70608;-38
2022/12/18 11:30:28;;;;;;;13.18;7.10;;;;;;;31.11;53.77;100763.47;5053051;28;66480;-42
2022/12/18 11:33:23;;;;;;;10.75;6.32;;;;;;;30.81;53.67;100719.19;5053368;28;70919;-36
2022/12/18 11:36:14;;;;;;;13.85;6.22;;;;;;;31.14;54.08;100779.25;5056276;28;66598;-39
2022/12/18 11:39:19;;;;;;;10.05;5.80;;;;;;;31.05;54.00;100777.91;5053020;28;71076;-41
2022/12/18 11:42:22;;;;;;;7.95;5.47;;;;;;;31.06;53.95;100793.09;5051663;28;66862;-35
2022/12/18 11:45:13;;;;;;;15.68;5.28;;;;;;;31.11;53.58;100803.28;5038078;28;69774;-36
2022/12/18 11:48:24;;;;;;;10.75;5.10;;;;;;;31.01;52.60;100795.69;5053148;28;66331;-40
2022/12/18 11:51:28;;;;;;;20.92;5.38;;;;;;;30.68;52.79;100758.03;5050038;28;70864;-37
2022/12/18 11:54:18;;;;;;;16.00;5.80;;;;;;;31.03;53.09;100823.34;5053341;28;66518;-39
2022/12/18 11:57:38;;;;;;;5.63;4.32;;;;;;;30.69;53.69;100793.00;5053509;28;70746;-37
2022/12/18 12:00:28;;;;;;;14.75;5.03;;;;;;;31.01;53.37;100841.72;5053588;28;66649;-36
2022/12/18 12:03:49;;;;;;;12.18;5.10;;;;;;;30.99;53.61;100846.53;5053046;28;70257;-38
2022/12/18 12:07:10;;;;;;;18.88;4.93;;;;;;;30.86;53.80;100844.75;5053615;28;67242;-36
2022/12/18 12:10:23;;;;;;;7.15;5.15;;;;;;;30.90;54.17;100851.41;5050687;28;70362;-39
2022/12/18 12:13:36;;;;;;;9.27;5.22;;;;;;;30.93;54.61;100869.91;5032638;28;66411;-37
2022/12/18 12:17:07;;;;;;;7.35;4.80;;;;;;;30.60;53.92;100809.75;5049503;28;71559;-39
2022/12/18 12:20:19;;;;;;;8.60;5.03;;;;;;;30.93;53.61;100863.69;5021354;28;66604;-41
2022/12/18 12:23:31;;;;;;;7.97;4.77;;;;;;;30.96;53.61;100871.34;5053093;28;69932;-37
2022/12/18 12:26:47;;;;;;;6.15;4.55;;;;;;;30.77;52.42;100880.44;5052251;28;67003;-41
2022/12/18 12:29:55;;;;;;;9.38;4.50;;;;;;;30.67;51.20;100883.63;5053717;28;70452;-40
2022/12/18 12:32:51;;;;;;;8.07;4.30;;;;;;;30.66;50.37;100900.91;5045503;28;66478;-38
2022/12/18 12:36:22;;;;;;;5.10;4.60;;;;;;;30.44;50.02;100909.38;5055729;28;70608;-41
2022/12/18 12:39:22;;;;;;;5.20;4.32;;;;;;;30.14;49.39;100844.13;4976420;28;67308;-37
2022/12/18 12:46:12;;;;;;;9.50;3.63;;;;;;;30.28;48.36;100893.63;5065930;27;67109;-39
2022/12/18 12:49:10;;;;;;;8.23;4.15;;;;;;;30.31;48.76;100905.91;5055546;28;70245;-39
2022/12/18 12:52:30;;;;;;;7.15;4.28;;;;;;;30.28;48.52;100910.72;5049663;28;67323;-37
2022/12/18 12:55:27;;;;;;;7.30;3.90;;;;;;;30.23;47.78;100926.78;5055674;28;71055;-36
2022/12/18 12:58:39;;;;;;;7.78;3.53;;;;;;;30.17;48.01;100922.19;5051731;28;67176;-38
2022/12/18 13:01:41;;;;;;;6.00;3.43;;;;;;;29.99;47.56;100909.34;5048293;28;70295;-37
2022/12/18 13:04:45;;;;;;;4.68;3.20;;;;;;;30.03;46.85;100947.59;5057984;28;66348;-39
2022/12/18 13:07:47;;;;;;;6.55;3.20;;;;;;;29.93;46.79;100939.13;5055225;28;71064;-38
2022/12/18 13:10:41;;;;;;;17.02;3.65;;;;;;;29.92;46.23;100932.03;5050606;28;67558;-41
2022/12/18 13:13:48;;;;;;;;;;;;;;;29.68;47.04;100945.22;5051382;28;70188;-38
2022/12/18 13:16:38;;;;;;;5.88;2.78;;;;;;;29.72;46.31;100927.50;5054241;28;66608;-36
2022/12/18 13:19:28;;;;;;;3.17;2.95;;;;;;;29.74;45.96;100938.13;5046156;28;70976;-39
2022/12/18 13:22:25;;;;;;;6.97;2.97;;;;;;;29.77;45.14;100957.44;5053085;28;66196;-41
2022/12/18 13:25:47;;;;;;;8.27;2.65;;;;;;;29.57;44.75;100956.63;5046886;28;71095;-39
2022/12/18 13:28:57;;;;;;;;;;;;;;;29.41;45.18;100957.88;5021094;28;66799;-40
2022/12/18 13:31:50;;;;;;;9.68;3.05;;;;;;;29.64;44.15;100957.47;5052746;28;70608;-39
2022/12/18 13:34:41;;;;;;;5.80;2.90;;;;;;;29.55;43.86;100956.81;5049103;28;66595;-38
2022/12/18 13:37:55;;;;;;;2.45;2.25;;;;;;;29.47;43.78;100956.22;5061213;27;71149;-38
2022/12/18 13:40:48;;;;;;;3.47;2.63;;;;;;;29.53;43.95;100955.38;5033452;28;67254;-38
2022/12/18 13:43:49;;;;;;;7.63;2.67;;;;;;;29.53;44.08;100963.47;5053247;28;71641;-40
2022/12/18 13:46:45;;;;;;;2.92;2.72;;;;;;;29.49;43.73;100975.75;5049142;28;66422;-40
2022/12/18 13:49:41;;;;;;;4.40;2.47;;;;;;;29.36;43.11;100966.63;5049596;28;70271;-42